createdAt,value
2017-10-12T00:00:23.430Z,0
2017-10-12T00:01:23.126Z,0
2017-10-12T00:02:23.145Z,0
2017-10-12T00:03:23.165Z,0
2017-10-12T00:04:23.521Z,0
2017-10-12T00:05:23.205Z,0
2017-10-12T00:06:23.227Z,0
2017-10-12T00:07:23.245Z,0
2017-10-12T00:08:23.608Z,0
2017-10-12T00:09:23.301Z,0
2017-10-12T00:10:23.307Z,0
2017-10-12T00:11:23.334Z,0
2017-10-12T00:12:23.349Z,0
2017-10-12T00:13:23.375Z,0
2017-10-12T00:14:23.398Z,0
2017-10-12T00:15:23.415Z,0
2017-10-12T00:16:23.767Z,0
2017-10-12T00:17:23.456Z,0
2017-10-12T00:18:23.476Z,0
2017-10-12T00:19:23.498Z,0
2017-10-12T00:20:23.894Z,0
2017-10-12T00:21:23.541Z,0
2017-10-12T00:22:23.564Z,0
2017-10-12T00:23:23.580Z,0
2017-10-12T00:24:23.599Z,0
2017-10-12T00:25:23.618Z,0
2017-10-12T00:26:23.644Z,0
2017-10-12T00:27:23.662Z,0
2017-10-12T00:28:24.013Z,0
2017-10-12T00:29:23.705Z,0
2017-10-12T00:30:23.722Z,0
2017-10-12T00:31:23.749Z,0
2017-10-12T00:32:23.767Z,0
2017-10-12T00:33:24.118Z,0
2017-10-12T00:34:24.149Z,0
2017-10-12T00:35:23.878Z,0
2017-10-12T00:36:23.866Z,0
2017-10-12T00:37:23.872Z,0
2017-10-12T00:38:24.206Z,0
2017-10-12T00:39:23.908Z,0
2017-10-12T00:40:23.930Z,0
2017-10-12T00:41:23.955Z,0
2017-10-12T00:42:23.994Z,0
2017-10-12T00:43:23.987Z,0
2017-10-12T00:44:24.007Z,0
2017-10-12T00:45:24.031Z,0
2017-10-12T00:46:24.388Z,0
2017-10-12T00:47:24.070Z,0
2017-10-12T00:48:24.090Z,0
2017-10-12T00:49:24.111Z,0
2017-10-12T00:50:24.532Z,0
2017-10-12T00:51:24.149Z,0
2017-10-12T00:52:24.177Z,0
2017-10-12T00:53:24.197Z,0
2017-10-12T00:54:24.218Z,0
2017-10-12T00:55:24.559Z,0
2017-10-12T00:56:24.251Z,0
2017-10-12T00:57:24.274Z,0
2017-10-12T00:58:31.159Z,0
2017-10-12T00:59:24.638Z,0
2017-10-12T01:00:24.341Z,0
2017-10-12T01:01:24.353Z,0
2017-10-12T01:02:24.375Z,0
2017-10-12T01:03:24.396Z,0
2017-10-12T01:04:24.414Z,0
2017-10-12T01:05:24.446Z,0
2017-10-12T01:06:24.463Z,0
2017-10-12T01:07:24.492Z,0
2017-10-12T01:08:24.827Z,0
2017-10-12T01:09:24.573Z,0
2017-10-12T01:10:24.539Z,0
2017-10-12T01:11:24.891Z,0
2017-10-12T01:12:24.582Z,0
2017-10-12T01:13:24.604Z,0
2017-10-12T01:14:24.628Z,0
2017-10-12T01:15:24.644Z,0
2017-10-12T01:16:24.668Z,0
2017-10-12T01:17:24.687Z,0
2017-10-12T01:18:25.029Z,0
2017-10-12T01:19:24.740Z,0
2017-10-12T01:20:24.746Z,0
2017-10-12T01:21:24.771Z,0
2017-10-12T01:22:24.787Z,0
2017-10-12T01:23:24.807Z,0
2017-10-12T01:24:24.881Z,0
2017-10-12T01:25:24.851Z,0
2017-10-12T01:26:24.874Z,0
2017-10-12T01:27:24.903Z,0
2017-10-12T01:28:24.923Z,0
2017-10-12T01:29:24.962Z,0
2017-10-12T01:30:24.957Z,0
2017-10-12T01:31:26.403Z,0
2017-10-12T01:32:26.477Z,0
2017-10-12T01:33:25.014Z,0
2017-10-12T01:34:25.030Z,0
2017-10-12T01:35:25.070Z,0
2017-10-12T01:36:25.072Z,0
2017-10-12T01:37:25.093Z,0
2017-10-12T01:38:25.111Z,0
2017-10-12T01:39:25.198Z,0
2017-10-12T01:40:25.475Z,0
2017-10-12T01:41:25.179Z,0
2017-10-12T01:42:25.194Z,0
2017-10-12T01:43:25.221Z,0
2017-10-12T01:44:25.236Z,0
2017-10-12T01:45:25.255Z,0
2017-10-12T01:46:25.597Z,0
2017-10-12T01:47:25.301Z,0
2017-10-12T01:48:25.318Z,0
2017-10-12T01:49:25.338Z,0
2017-10-12T01:50:25.678Z,0
2017-10-12T01:51:25.393Z,0
2017-10-12T01:52:25.401Z,0
2017-10-12T01:53:25.417Z,0
2017-10-12T01:54:25.489Z,0
2017-10-12T01:55:25.463Z,0
2017-10-12T01:56:25.490Z,0
2017-10-12T01:57:25.535Z,0
2017-10-12T01:58:25.524Z,0
2017-10-12T01:59:25.539Z,0
2017-10-12T02:00:25.887Z,0
2017-10-12T02:01:25.580Z,0
2017-10-12T02:02:25.930Z,0
2017-10-12T02:03:25.620Z,0
2017-10-12T02:04:25.641Z,0
2017-10-12T02:05:25.662Z,0
2017-10-12T02:06:25.689Z,0
2017-10-12T02:07:26.041Z,0
2017-10-12T02:08:26.074Z,0
2017-10-12T02:09:25.741Z,0
2017-10-12T02:10:25.812Z,0
2017-10-12T02:11:25.789Z,0
2017-10-12T02:12:25.805Z,0
2017-10-12T02:13:25.853Z,0
2017-10-12T02:14:25.847Z,0
2017-10-12T02:15:25.864Z,0
2017-10-12T02:16:25.883Z,0
2017-10-12T02:17:25.904Z,0
2017-10-12T02:18:25.927Z,0
2017-10-12T02:19:25.946Z,0
2017-10-12T02:20:25.977Z,0
2017-10-12T02:21:25.992Z,0
2017-10-12T02:22:26.023Z,0
2017-10-12T02:23:26.026Z,0
2017-10-12T02:24:26.045Z,0
2017-10-12T02:25:26.062Z,0
2017-10-12T02:26:26.085Z,0
2017-10-12T02:27:26.156Z,0
2017-10-12T02:28:26.461Z,0
2017-10-12T02:29:26.150Z,0
2017-10-12T02:30:26.168Z,0
2017-10-12T02:31:26.514Z,0
2017-10-12T02:32:26.208Z,0
2017-10-12T02:33:26.227Z,0
2017-10-12T02:34:26.256Z,0
2017-10-12T02:35:26.272Z,0
2017-10-12T02:36:26.282Z,0
2017-10-12T02:37:26.305Z,0
2017-10-12T02:38:26.331Z,0
2017-10-12T02:39:26.351Z,0
2017-10-12T02:40:26.700Z,0
2017-10-12T02:41:26.389Z,0
2017-10-12T02:42:26.461Z,0
2017-10-12T02:43:26.437Z,0
2017-10-12T02:44:26.462Z,0
2017-10-12T02:45:26.488Z,0
2017-10-12T02:46:26.498Z,0
2017-10-12T02:47:26.520Z,0
2017-10-12T02:48:26.533Z,0
2017-10-12T02:49:26.554Z,0
2017-10-12T02:50:26.597Z,0
2017-10-12T02:51:26.595Z,0
2017-10-12T02:52:26.616Z,0
2017-10-12T02:53:26.633Z,0
2017-10-12T02:54:26.652Z,0
2017-10-12T02:55:26.674Z,0
2017-10-12T02:56:26.708Z,0
2017-10-12T02:57:26.717Z,0
2017-10-12T02:58:27.061Z,0
2017-10-12T02:59:26.804Z,0
2017-10-12T03:00:26.795Z,0
2017-10-12T03:01:26.801Z,0
2017-10-12T03:02:26.815Z,0
2017-10-12T03:03:26.840Z,0
2017-10-12T03:04:27.178Z,0
2017-10-12T03:05:26.883Z,0
2017-10-12T03:06:26.905Z,0
2017-10-12T03:07:26.921Z,0
2017-10-12T03:08:26.940Z,0
2017-10-12T03:09:27.013Z,0
2017-10-12T03:10:27.318Z,0
2017-10-12T03:11:27.006Z,0
2017-10-12T03:12:27.021Z,0
2017-10-12T03:13:27.041Z,0
2017-10-12T03:14:27.058Z,0
2017-10-12T03:15:27.083Z,0
2017-10-12T03:16:27.096Z,0
2017-10-12T03:17:27.122Z,0
2017-10-12T03:18:27.149Z,0
2017-10-12T03:19:27.167Z,0
2017-10-12T03:20:27.184Z,0
2017-10-12T03:21:27.213Z,0
2017-10-12T03:22:27.246Z,0
2017-10-12T03:23:27.247Z,0
2017-10-12T03:24:27.276Z,0
2017-10-12T03:25:27.285Z,0
2017-10-12T03:26:27.355Z,0
2017-10-12T03:27:27.327Z,0
2017-10-12T03:28:27.365Z,0
2017-10-12T03:29:27.367Z,0
2017-10-12T03:30:27.389Z,0
2017-10-12T03:31:27.414Z,0
2017-10-12T03:32:27.783Z,0
2017-10-12T03:33:27.456Z,0
2017-10-12T03:34:27.471Z,0
2017-10-12T03:35:27.491Z,0
2017-10-12T03:36:27.515Z,0
2017-10-12T03:37:27.859Z,0
2017-10-12T03:38:27.557Z,0
2017-10-12T03:39:27.577Z,0
2017-10-12T03:40:27.927Z,0
2017-10-12T03:41:27.627Z,0
2017-10-12T03:42:27.640Z,0
2017-10-12T03:43:27.685Z,0
2017-10-12T03:44:27.690Z,0
2017-10-12T03:45:27.707Z,0
2017-10-12T03:46:27.721Z,0
2017-10-12T03:47:27.744Z,0
2017-10-12T03:48:27.765Z,0
2017-10-12T03:49:27.780Z,0
2017-10-12T03:50:27.807Z,0
2017-10-12T03:51:28.163Z,0
2017-10-12T03:52:27.851Z,0
2017-10-12T03:53:27.866Z,0
2017-10-12T03:54:27.884Z,0
2017-10-12T03:55:27.909Z,0
2017-10-12T03:56:27.928Z,0
2017-10-12T03:57:28.007Z,0
2017-10-12T03:58:27.973Z,0
2017-10-12T03:59:27.989Z,0
2017-10-12T04:00:28.034Z,0
2017-10-12T04:01:28.027Z,0
2017-10-12T04:02:28.046Z,0
2017-10-12T04:03:28.064Z,0
2017-10-12T04:04:28.086Z,0
2017-10-12T04:05:28.123Z,0
2017-10-12T04:06:28.456Z,0
2017-10-12T04:07:28.152Z,0
2017-10-12T04:08:28.168Z,0
2017-10-12T04:09:28.185Z,0
2017-10-12T04:10:28.208Z,0
2017-10-12T04:11:28.234Z,0
2017-10-12T04:12:28.260Z,0
2017-10-12T04:13:28.278Z,0
2017-10-12T04:14:28.339Z,0
2017-10-12T04:15:28.326Z,0
2017-10-12T04:16:28.332Z,0
2017-10-12T04:17:28.361Z,0
2017-10-12T04:18:28.379Z,0
2017-10-12T04:19:28.393Z,0
2017-10-12T04:20:28.414Z,0
2017-10-12T04:21:28.456Z,0
2017-10-12T04:22:28.463Z,0
2017-10-12T04:23:28.470Z,0
2017-10-12T04:24:28.492Z,0
2017-10-12T04:25:28.516Z,0
2017-10-12T04:26:28.534Z,0
2017-10-12T04:27:28.889Z,0
2017-10-12T04:28:28.588Z,0
2017-10-12T04:29:28.650Z,0
2017-10-12T04:30:28.627Z,0
2017-10-12T04:31:28.663Z,0
2017-10-12T04:32:29.001Z,0
2017-10-12T04:33:28.683Z,0
2017-10-12T04:34:28.701Z,0
2017-10-12T04:35:28.725Z,0
2017-10-12T04:36:28.762Z,4
2017-10-12T04:37:28.822Z,0
2017-10-12T04:38:28.800Z,0
2017-10-12T04:39:28.814Z,0
2017-10-12T04:40:28.820Z,0
2017-10-12T04:41:28.844Z,0
2017-10-12T04:42:28.875Z,0
2017-10-12T04:43:28.888Z,0
2017-10-12T04:44:28.963Z,0
2017-10-12T04:45:28.937Z,0
2017-10-12T04:46:28.953Z,0
2017-10-12T04:47:28.973Z,0
2017-10-12T04:48:28.994Z,0
2017-10-12T04:49:29.026Z,0
2017-10-12T04:50:29.029Z,0
2017-10-12T04:51:29.049Z,0
2017-10-12T04:52:29.070Z,0
2017-10-12T04:53:29.441Z,0
2017-10-12T04:54:29.435Z,0
2017-10-12T04:55:29.142Z,0
2017-10-12T04:56:29.154Z,0
2017-10-12T04:57:29.179Z,0
2017-10-12T04:58:29.205Z,0
2017-10-12T04:59:29.217Z,0
2017-10-12T05:00:29.238Z,0
2017-10-12T05:01:29.323Z,0
2017-10-12T05:02:29.601Z,4
2017-10-12T05:03:29.306Z,0
2017-10-12T05:04:29.321Z,4
2017-10-12T05:05:29.665Z,0
2017-10-12T05:06:29.365Z,4
2017-10-12T05:07:29.389Z,8
2017-10-12T05:08:29.405Z,8
2017-10-12T05:09:29.441Z,12
2017-10-12T05:10:29.772Z,12
2017-10-12T05:11:29.467Z,12
2017-10-12T05:12:29.492Z,16
2017-10-12T05:13:29.516Z,20
2017-10-12T05:14:29.536Z,24
2017-10-12T05:15:29.567Z,28
2017-10-12T05:16:29.627Z,32
2017-10-12T05:17:29.599Z,40
2017-10-12T05:18:29.947Z,44
2017-10-12T05:19:29.634Z,56
2017-10-12T05:20:29.660Z,64
2017-10-12T05:21:29.688Z,72
2017-10-12T05:22:29.701Z,80
2017-10-12T05:23:29.724Z,88
2017-10-12T05:24:29.753Z,100
2017-10-12T05:25:29.769Z,112
2017-10-12T05:26:29.797Z,132
2017-10-12T05:27:30.131Z,144
2017-10-12T05:28:29.864Z,164
2017-10-12T05:29:29.861Z,184
2017-10-12T05:30:30.184Z,204
2017-10-12T05:31:29.937Z,224
2017-10-12T05:32:29.919Z,240
2017-10-12T05:33:30.262Z,256
2017-10-12T05:34:29.956Z,276
2017-10-12T05:35:29.975Z,292
2017-10-12T05:36:30.005Z,308
2017-10-12T05:37:30.350Z,332
2017-10-12T05:38:30.049Z,356
2017-10-12T05:39:30.386Z,376
2017-10-12T05:40:30.080Z,396
2017-10-12T05:41:30.150Z,420
2017-10-12T05:42:30.116Z,440
2017-10-12T05:43:30.479Z,464
2017-10-12T05:44:30.162Z,488
2017-10-12T05:45:30.186Z,516
2017-10-12T05:46:30.202Z,536
2017-10-12T05:47:30.230Z,568
2017-10-12T05:48:30.253Z,592
2017-10-12T05:49:30.280Z,624
2017-10-12T05:50:30.299Z,656
2017-10-12T05:51:30.319Z,692
2017-10-12T05:52:30.336Z,728
2017-10-12T05:53:30.698Z,768
2017-10-12T05:54:30.372Z,808
2017-10-12T05:55:30.395Z,848
2017-10-12T05:56:30.473Z,884
2017-10-12T05:57:30.432Z,928
2017-10-12T05:58:30.459Z,964
2017-10-12T05:59:30.482Z,1004
2017-10-12T06:00:30.502Z,1048
2017-10-12T06:01:30.876Z,1100
2017-10-12T06:02:30.545Z,1172
2017-10-12T06:03:30.569Z,1208
2017-10-12T06:04:30.929Z,1240
2017-10-12T06:05:30.606Z,1272
2017-10-12T06:06:30.624Z,1320
2017-10-12T06:07:30.659Z,1364
2017-10-12T06:08:30.675Z,1400
2017-10-12T06:09:31.686Z,1436
2017-10-12T06:10:30.709Z,1476
2017-10-12T06:11:30.739Z,1504
2017-10-12T06:12:30.760Z,1540
2017-10-12T06:13:30.779Z,1564
2017-10-12T06:14:30.801Z,1572
2017-10-12T06:15:30.823Z,1568
2017-10-12T06:16:30.860Z,1692
2017-10-12T06:17:30.862Z,1744
2017-10-12T06:18:30.877Z,1788
2017-10-12T06:19:30.910Z,1832
2017-10-12T06:20:31.259Z,1872
2017-10-12T06:21:30.938Z,1912
2017-10-12T06:22:31.289Z,1952
2017-10-12T06:23:30.988Z,1988
2017-10-12T06:24:31.008Z,2036
2017-10-12T06:25:31.030Z,2088
2017-10-12T06:26:31.048Z,2144
2017-10-12T06:27:31.119Z,2196
2017-10-12T06:28:31.091Z,2240
2017-10-12T06:29:31.116Z,2284
2017-10-12T06:30:31.131Z,2336
2017-10-12T06:31:31.165Z,2380
2017-10-12T06:32:31.188Z,2416
2017-10-12T06:33:31.195Z,2456
2017-10-12T06:34:31.215Z,2500
2017-10-12T06:35:31.237Z,2532
2017-10-12T06:36:31.255Z,2568
2017-10-12T06:37:31.284Z,2612
2017-10-12T06:38:31.324Z,2644
2017-10-12T06:39:31.326Z,2704
2017-10-12T06:40:31.668Z,2756
2017-10-12T06:41:31.369Z,2800
2017-10-12T06:42:31.389Z,2836
2017-10-12T06:43:31.410Z,2880
2017-10-12T06:44:31.436Z,2920
2017-10-12T06:45:31.778Z,2988
2017-10-12T06:46:31.470Z,3044
2017-10-12T06:47:31.808Z,3096
2017-10-12T06:48:31.525Z,3148
2017-10-12T06:49:31.547Z,3192
2017-10-12T06:50:31.556Z,3240
2017-10-12T06:51:31.582Z,3280
2017-10-12T06:52:31.602Z,3324
2017-10-12T06:53:31.961Z,3368
2017-10-12T06:54:31.650Z,3416
2017-10-12T06:55:31.987Z,3440
2017-10-12T06:56:31.680Z,3472
2017-10-12T06:57:31.700Z,3512
2017-10-12T06:58:31.733Z,3548
2017-10-12T06:59:31.747Z,3584
2017-10-12T07:00:32.139Z,3604
2017-10-12T07:01:31.793Z,3648
2017-10-12T07:02:31.813Z,3700
2017-10-12T07:03:31.843Z,3736
2017-10-12T07:04:31.857Z,3776
2017-10-12T07:05:31.876Z,3816
2017-10-12T07:06:31.891Z,3848
2017-10-12T07:07:31.913Z,3884
2017-10-12T07:08:31.942Z,3936
2017-10-12T07:09:32.289Z,3984
2017-10-12T07:10:32.004Z,4028
2017-10-12T07:11:32.024Z,4064
2017-10-12T07:12:32.033Z,4100
2017-10-12T07:13:32.045Z,4136
2017-10-12T07:14:32.070Z,4172
2017-10-12T07:15:33.198Z,4208
2017-10-12T07:16:32.436Z,4248
2017-10-12T07:17:32.149Z,4284
2017-10-12T07:18:32.152Z,4328
2017-10-12T07:19:32.183Z,4364
2017-10-12T07:20:33.321Z,4400
2017-10-12T07:21:33.904Z,4440
2017-10-12T07:22:32.243Z,4476
2017-10-12T07:23:32.269Z,4512
2017-10-12T07:24:32.283Z,4540
2017-10-12T07:25:32.648Z,4576
2017-10-12T07:26:32.334Z,4620
2017-10-12T07:27:32.679Z,4660
2017-10-12T07:28:32.718Z,4712
2017-10-12T07:29:32.730Z,4752
2017-10-12T07:30:32.423Z,4832
2017-10-12T07:31:32.457Z,4908
2017-10-12T07:32:32.793Z,4960
2017-10-12T07:33:32.492Z,4992
2017-10-12T07:34:32.530Z,5028
2017-10-12T07:35:32.530Z,5064
2017-10-12T07:36:32.882Z,5100
2017-10-12T07:37:32.573Z,5104
2017-10-12T07:38:32.601Z,5084
2017-10-12T07:39:32.625Z,5024
2017-10-12T07:40:32.982Z,5596
2017-10-12T07:41:32.701Z,5832
2017-10-12T07:42:32.688Z,6240
2017-10-12T07:43:33.055Z,6648
2017-10-12T07:44:32.734Z,7024
2017-10-12T07:45:32.755Z,7204
2017-10-12T07:46:32.774Z,7204
2017-10-12T07:47:32.797Z,6936
2017-10-12T07:48:32.819Z,6576
2017-10-12T07:49:32.849Z,5292
2017-10-12T07:50:32.920Z,4136
2017-10-12T07:51:33.219Z,3540
2017-10-12T07:52:32.913Z,4780
2017-10-12T07:53:33.267Z,6120
2017-10-12T07:54:32.960Z,5976
2017-10-12T07:55:32.982Z,6024
2017-10-12T07:56:33.331Z,5348
2017-10-12T07:57:33.339Z,6212
2017-10-12T07:58:33.047Z,6248
2017-10-12T07:59:33.065Z,6360
2017-10-12T08:00:33.103Z,6436
2017-10-12T08:01:33.119Z,6596
2017-10-12T08:02:33.134Z,6772
2017-10-12T08:03:33.491Z,6900
2017-10-12T08:04:33.510Z,6992
2017-10-12T08:05:33.259Z,6444
2017-10-12T08:06:33.229Z,7444
2017-10-12T08:07:33.251Z,7572
2017-10-12T08:08:33.280Z,7852
2017-10-12T08:09:33.305Z,8116
2017-10-12T08:10:33.681Z,8380
2017-10-12T08:11:33.345Z,8696
2017-10-12T08:12:33.372Z,8228
2017-10-12T08:13:33.382Z,8516
2017-10-12T08:14:33.413Z,8936
2017-10-12T08:15:33.438Z,9184
2017-10-12T08:16:33.474Z,8904
2017-10-12T08:17:33.482Z,8712
2017-10-12T08:18:33.510Z,7948
2017-10-12T08:19:33.860Z,6108
2017-10-12T08:20:33.556Z,6532
2017-10-12T08:21:33.575Z,5764
2017-10-12T08:22:33.621Z,5380
2017-10-12T08:23:33.624Z,5280
2017-10-12T08:24:33.642Z,5168
2017-10-12T08:25:33.666Z,5252
2017-10-12T08:26:33.692Z,6216
2017-10-12T08:27:33.716Z,6396
2017-10-12T08:28:33.751Z,6932
2017-10-12T08:29:33.766Z,7352
2017-10-12T08:30:34.100Z,7832
2017-10-12T08:31:33.813Z,7988
2017-10-12T08:32:34.156Z,8040
2017-10-12T08:33:34.196Z,7656
2017-10-12T08:34:33.884Z,7184
2017-10-12T08:35:33.925Z,8556
2017-10-12T08:36:33.928Z,8128
2017-10-12T08:37:34.665Z,6860
2017-10-12T08:38:33.974Z,5724
2017-10-12T08:39:34.320Z,8164
2017-10-12T08:40:34.021Z,8048
2017-10-12T08:41:34.071Z,7956
2017-10-12T08:42:34.071Z,8236
2017-10-12T08:43:34.526Z,7960
2017-10-12T08:44:34.124Z,8424
2017-10-12T08:45:34.147Z,8936
2017-10-12T08:46:34.164Z,9760
2017-10-12T08:47:34.193Z,10348
2017-10-12T08:48:34.214Z,10856
2017-10-12T08:49:34.236Z,9760
2017-10-12T08:50:34.265Z,9900
2017-10-12T08:51:34.293Z,10128
2017-10-12T08:52:34.318Z,10260
2017-10-12T08:53:34.714Z,9860
2017-10-12T08:54:34.359Z,12488
2017-10-12T08:55:34.388Z,11680
2017-10-12T08:56:34.406Z,12868
2017-10-12T08:57:34.433Z,14312
2017-10-12T08:58:34.452Z,11920
2017-10-12T08:59:34.480Z,11452
2017-10-12T09:00:34.510Z,10484
2017-10-12T09:01:34.535Z,9896
2017-10-12T09:02:34.553Z,9408
2017-10-12T09:03:34.578Z,9192
2017-10-12T09:04:34.609Z,9120
2017-10-12T09:05:34.959Z,9136
2017-10-12T09:06:34.664Z,9300
2017-10-12T09:07:34.693Z,9620
2017-10-12T09:08:34.752Z,9936
2017-10-12T09:09:35.370Z,10192
2017-10-12T09:10:34.980Z,9920
2017-10-12T09:11:34.782Z,9688
2017-10-12T09:12:34.800Z,9360
2017-10-12T09:13:35.166Z,9004
2017-10-12T09:14:34.869Z,8716
2017-10-12T09:15:34.881Z,8104
2017-10-12T09:16:34.903Z,8488
2017-10-12T09:17:34.930Z,9340
2017-10-12T09:18:34.953Z,11172
2017-10-12T09:19:34.974Z,10460
2017-10-12T09:20:35.005Z,11164
2017-10-12T09:21:35.359Z,8988
2017-10-12T09:22:35.049Z,9044
2017-10-12T09:23:35.450Z,10120
2017-10-12T09:24:35.111Z,11540
2017-10-12T09:25:35.127Z,13112
2017-10-12T09:26:35.144Z,13232
2017-10-12T09:27:35.170Z,10636
2017-10-12T09:28:35.211Z,7548
2017-10-12T09:29:35.228Z,6660
2017-10-12T09:30:35.246Z,10068
2017-10-12T09:31:35.269Z,10644
2017-10-12T09:32:35.298Z,10580
2017-10-12T09:33:35.330Z,10476
2017-10-12T09:34:35.350Z,10548
2017-10-12T09:35:35.374Z,10872
2017-10-12T09:36:35.494Z,11216
2017-10-12T09:37:35.752Z,10924
2017-10-12T09:38:35.454Z,10800
2017-10-12T09:39:35.473Z,7484
2017-10-12T09:40:35.496Z,7236
2017-10-12T09:41:35.580Z,10772
2017-10-12T09:42:35.550Z,7744
2017-10-12T09:43:35.573Z,10972
2017-10-12T09:44:35.602Z,10172
2017-10-12T09:45:35.635Z,10324
2017-10-12T09:46:35.648Z,12248
2017-10-12T09:47:35.676Z,10948
2017-10-12T09:48:35.696Z,13720
2017-10-12T09:49:35.730Z,15208
2017-10-12T09:50:35.756Z,10836
2017-10-12T09:51:35.776Z,11336
2017-10-12T09:52:36.129Z,11048
2017-10-12T09:53:36.148Z,12428
2017-10-12T09:54:36.184Z,13856
2017-10-12T09:55:35.880Z,14484
2017-10-12T09:56:35.901Z,12784
2017-10-12T09:57:35.931Z,11940
2017-10-12T09:58:35.954Z,12000
2017-10-12T09:59:35.981Z,10388
2017-10-12T10:00:36.051Z,11208
2017-10-12T10:01:36.033Z,13488
2017-10-12T10:02:36.068Z,13248
2017-10-12T10:03:36.080Z,12576
2017-10-12T10:04:36.099Z,16096
2017-10-12T10:05:36.128Z,13288
2017-10-12T10:06:36.156Z,11392
2017-10-12T10:07:36.177Z,16608
2017-10-12T10:08:36.216Z,14264
2017-10-12T10:09:36.248Z,10620
2017-10-12T10:10:36.271Z,9592
2017-10-12T10:11:36.274Z,9604
2017-10-12T10:12:36.309Z,9804
2017-10-12T10:13:36.332Z,10264
2017-10-12T10:14:36.360Z,9600
2017-10-12T10:15:36.441Z,11608
2017-10-12T10:16:36.415Z,11320
2017-10-12T10:17:36.759Z,7856
2017-10-12T10:18:36.461Z,7476
2017-10-12T10:19:36.499Z,7768
2017-10-12T10:20:36.508Z,10240
2017-10-12T10:21:36.535Z,13988
2017-10-12T10:22:36.886Z,50592
2017-10-12T10:23:36.596Z,18144
2017-10-12T10:24:36.630Z,41568
2017-10-12T10:25:36.635Z,48448
2017-10-12T10:26:36.662Z,16224
2017-10-12T10:27:36.696Z,14580
2017-10-12T10:28:36.718Z,14300
2017-10-12T10:29:36.743Z,49440
2017-10-12T10:30:36.821Z,40416
2017-10-12T10:31:36.805Z,15080
2017-10-12T10:32:36.821Z,54624
2017-10-12T10:33:37.173Z,24096
2017-10-12T10:34:36.864Z,51392
2017-10-12T10:35:36.896Z,11400
2017-10-12T10:36:36.919Z,12420
2017-10-12T10:37:36.948Z,13720
2017-10-12T10:38:36.978Z,30592
2017-10-12T10:39:37.006Z,13732
2017-10-12T10:40:37.029Z,38080
2017-10-12T10:41:37.065Z,14516
2017-10-12T10:42:37.084Z,16288
2017-10-12T10:43:37.106Z,54816
2017-10-12T10:44:37.334Z,20416
2017-10-12T10:45:37.493Z,16672
2017-10-12T10:46:37.194Z,13428
2017-10-12T10:47:37.215Z,10404
2017-10-12T10:48:37.296Z,7984
2017-10-12T10:49:37.275Z,6812
2017-10-12T10:50:37.298Z,6376
2017-10-12T10:51:37.334Z,5880
2017-10-12T10:52:37.348Z,5896
2017-10-12T10:53:37.386Z,6108
2017-10-12T10:54:37.404Z,6016
2017-10-12T10:55:37.433Z,5940
2017-10-12T10:56:37.455Z,6256
2017-10-12T10:57:37.479Z,6244
2017-10-12T10:58:37.510Z,6564
2017-10-12T10:59:37.540Z,7336
2017-10-12T11:00:37.556Z,7312
2017-10-12T11:01:37.586Z,6424
2017-10-12T11:02:37.609Z,5724
2017-10-12T11:03:37.688Z,5576
2017-10-12T11:04:37.665Z,5536
2017-10-12T11:05:37.691Z,4964
2017-10-12T11:06:37.722Z,5008
2017-10-12T11:07:37.738Z,5048
2017-10-12T11:08:38.088Z,4960
2017-10-12T11:09:37.790Z,4160
2017-10-12T11:10:37.811Z,3224
2017-10-12T11:11:37.837Z,2668
2017-10-12T11:12:37.864Z,2480
2017-10-12T11:13:37.897Z,2280
2017-10-12T11:14:37.924Z,2056
2017-10-12T11:15:38.258Z,2052
2017-10-12T11:16:37.959Z,2136
2017-10-12T11:17:37.988Z,2112
2017-10-12T11:18:38.017Z,2140
2017-10-12T11:19:38.040Z,2172
2017-10-12T11:20:38.106Z,2004
2017-10-12T11:21:38.113Z,1732
2017-10-12T11:22:38.123Z,1624
2017-10-12T11:23:38.136Z,1596
2017-10-12T11:24:38.164Z,1660
2017-10-12T11:25:38.174Z,1760
2017-10-12T11:26:38.205Z,1796
2017-10-12T11:27:38.227Z,1824
2017-10-12T11:28:38.580Z,1864
2017-10-12T11:29:38.274Z,1992
2017-10-12T11:30:38.296Z,2140
2017-10-12T11:31:38.321Z,2388
2017-10-12T11:32:38.341Z,2520
2017-10-12T11:33:38.370Z,2448
2017-10-12T11:34:38.405Z,2268
2017-10-12T11:35:38.461Z,2016
2017-10-12T11:36:38.441Z,1808
2017-10-12T11:37:38.462Z,1716
2017-10-12T11:38:38.492Z,1692
2017-10-12T11:39:38.514Z,1696
2017-10-12T11:40:38.529Z,1632
2017-10-12T11:41:38.551Z,1536
2017-10-12T11:42:38.583Z,1488
2017-10-12T11:43:38.601Z,1472
2017-10-12T11:44:38.950Z,1432
2017-10-12T11:45:38.648Z,1320
2017-10-12T11:46:38.675Z,1200
2017-10-12T11:47:38.695Z,1120
2017-10-12T11:48:38.719Z,1116
2017-10-12T11:49:38.747Z,1172
2017-10-12T11:50:38.837Z,1248
2017-10-12T11:51:38.789Z,1288
2017-10-12T11:52:38.819Z,1252
2017-10-12T11:53:38.838Z,1256
2017-10-12T11:54:38.861Z,1388
2017-10-12T11:55:38.879Z,1628
2017-10-12T11:56:38.902Z,1816
2017-10-12T11:57:39.245Z,1832
2017-10-12T11:58:38.957Z,1776
2017-10-12T11:59:38.983Z,1780
2017-10-12T12:00:39.003Z,1680
2017-10-12T12:01:39.024Z,1660
2017-10-12T12:02:39.037Z,1896
2017-10-12T12:03:39.060Z,2284
2017-10-12T12:04:39.088Z,2492
2017-10-12T12:05:39.822Z,2380
2017-10-12T12:06:39.140Z,2104
2017-10-12T12:07:39.163Z,2028
2017-10-12T12:08:39.181Z,2108
2017-10-12T12:09:39.198Z,2380
2017-10-12T12:10:39.230Z,2528
2017-10-12T12:11:39.248Z,2440
2017-10-12T12:12:39.268Z,2420
2017-10-12T12:13:39.302Z,2360
2017-10-12T12:14:39.321Z,2292
2017-10-12T12:15:39.415Z,2352
2017-10-12T12:16:39.365Z,2504
2017-10-12T12:17:39.383Z,2612
2017-10-12T12:18:39.408Z,2748
2017-10-12T12:19:39.439Z,2596
2017-10-12T12:20:39.466Z,2608
2017-10-12T12:21:39.486Z,2524
2017-10-12T12:22:39.505Z,2508
2017-10-12T12:23:39.539Z,2444
2017-10-12T12:24:39.549Z,2304
2017-10-12T12:25:39.573Z,2244
2017-10-12T12:26:39.592Z,2360
2017-10-12T12:27:39.628Z,2612
2017-10-12T12:28:39.643Z,3040
2017-10-12T12:29:39.668Z,3364
2017-10-12T12:30:39.706Z,3432
2017-10-12T12:31:39.722Z,3468
2017-10-12T12:32:40.099Z,3472
2017-10-12T12:33:39.755Z,3328
2017-10-12T12:34:39.793Z,3184
2017-10-12T12:35:40.130Z,3236
2017-10-12T12:36:39.840Z,3356
2017-10-12T12:37:39.854Z,3416
2017-10-12T12:38:39.921Z,3492
2017-10-12T12:39:40.229Z,3740
2017-10-12T12:40:39.975Z,4072
2017-10-12T12:41:40.004Z,4684
2017-10-12T12:42:39.971Z,6008
2017-10-12T12:43:40.038Z,7820
2017-10-12T12:44:40.073Z,9936
2017-10-12T12:45:40.078Z,12464
2017-10-12T12:46:40.089Z,16512
2017-10-12T12:47:40.082Z,19968
2017-10-12T12:48:40.448Z,14012
2017-10-12T12:49:40.131Z,11956
2017-10-12T12:50:40.160Z,11260
2017-10-12T12:51:40.183Z,12624
2017-10-12T12:52:40.203Z,16148
2017-10-12T12:53:40.221Z,51936
2017-10-12T12:54:40.262Z,67744
2017-10-12T12:55:40.282Z,41984
2017-10-12T12:56:40.351Z,26368
2017-10-12T12:57:40.322Z,23360
2017-10-12T12:58:40.351Z,16576
2017-10-12T12:59:40.367Z,12540
2017-10-12T13:00:40.403Z,12304
2017-10-12T13:01:40.424Z,12624
2017-10-12T13:02:40.447Z,12260
2017-10-12T13:03:40.474Z,12332
2017-10-12T13:04:40.499Z,10784
2017-10-12T13:05:40.527Z,10000
2017-10-12T13:06:40.544Z,11968
2017-10-12T13:07:40.578Z,14928
2017-10-12T13:08:40.935Z,16096
2017-10-12T13:09:40.646Z,15164
2017-10-12T13:10:40.994Z,15116
2017-10-12T13:11:40.728Z,18752
2017-10-12T13:12:40.711Z,35104
2017-10-12T13:13:41.051Z,30304
2017-10-12T13:14:40.779Z,43968
2017-10-12T13:15:40.783Z,61248
2017-10-12T13:16:40.823Z,36320
2017-10-12T13:17:41.186Z,91808
2017-10-12T13:18:40.855Z,39232
2017-10-12T13:19:41.209Z,29888
2017-10-12T13:20:40.910Z,68672
2017-10-12T13:21:40.939Z,72448
2017-10-12T13:22:40.971Z,46496
2017-10-12T13:23:41.005Z,23744
2017-10-12T13:24:41.368Z,10052
2017-10-12T13:25:41.051Z,12700
2017-10-12T13:26:41.082Z,9336
2017-10-12T13:27:41.111Z,10948
2017-10-12T13:28:41.137Z,18464
2017-10-12T13:29:41.212Z,22208
2017-10-12T13:30:41.184Z,17216
2017-10-12T13:31:41.225Z,11732
2017-10-12T13:32:41.257Z,8956
2017-10-12T13:33:41.266Z,6092
2017-10-12T13:34:41.308Z,4748
2017-10-12T13:35:41.647Z,4024
2017-10-12T13:36:41.346Z,3516
2017-10-12T13:37:41.373Z,3168
2017-10-12T13:38:41.405Z,2964
2017-10-12T13:39:41.767Z,2840
2017-10-12T13:40:41.457Z,2728
2017-10-12T13:41:41.476Z,2688
2017-10-12T13:42:41.509Z,2704
2017-10-12T13:43:41.533Z,2844
2017-10-12T13:44:41.559Z,2920
2017-10-12T13:45:41.586Z,2928
2017-10-12T13:46:41.606Z,2916
2017-10-12T13:47:41.682Z,2860